sensor_id;sensor_type;location;lat;lon;timestamp;P1;durP1;ratioP1;P2;durP2;ratioP2
23634;SDS011;11994;51.038;16.974;2022-08-11T00:02:40;6.47;;;3.83;;
23634;SDS011;11994;51.038;16.974;2022-08-11T00:05:13;8.85;;;3.90;;
23634;SDS011;11994;51.038;16.974;2022-08-11T00:07:44;7.05;;;3.83;;
23634;SDS011;11994;51.038;16.974;2022-08-11T00:10:15;6.72;;;3.35;;
23634;SDS011;11994;51.038;16.974;2022-08-11T00:12:55;7.83;;;3.20;;
23634;SDS011;11994;51.038;16.974;2022-08-11T00:15:28;5.67;;;3.70;;
23634;SDS011;11994;51.038;16.974;2022-08-11T00:17:59;5.67;;;3.58;;
23634;SDS011;11994;51.038;16.974;2022-08-11T00:20:30;8.30;;;4.05;;
23634;SDS011;11994;51.038;16.974;2022-08-11T00:23:05;7.10;;;4.08;;
23634;SDS011;11994;51.038;16.974;2022-08-11T00:25:39;8.63;;;4.10;;
23634;SDS011;11994;51.038;16.974;2022-08-11T00:30:56;7.12;;;3.98;;
23634;SDS011;11994;51.038;16.974;2022-08-11T00:33:48;6.12;;;3.75;;
23634;SDS011;11994;51.038;16.974;2022-08-11T00:36:10;9.25;;;4.10;;
23634;SDS011;11994;51.038;16.974;2022-08-11T00:38:41;7.30;;;4.25;;
23634;SDS011;11994;51.038;16.974;2022-08-11T00:55:51;6.58;;;3.80;;
23634;SDS011;11994;51.038;16.974;2022-08-11T00:58:26;12.55;;;4.45;;
23634;SDS011;11994;51.038;16.974;2022-08-11T01:12:28;14.13;;;4.45;;
23634;SDS011;11994;51.038;16.974;2022-08-11T01:18:51;9.18;;;4.55;;
23634;SDS011;11994;51.038;16.974;2022-08-11T01:21:40;8.65;;;3.98;;
23634;SDS011;11994;51.038;16.974;2022-08-11T01:32:58;5.42;;;3.92;;
23634;SDS011;11994;51.038;16.974;2022-08-11T01:41:53;6.05;;;4.50;;
23634;SDS011;11994;51.038;16.974;2022-08-11T01:47:44;7.87;;;4.92;;
23634;SDS011;11994;51.038;16.974;2022-08-11T01:53:53;6.80;;;4.08;;
23634;SDS011;11994;51.038;16.974;2022-08-11T02:00:03;6.17;;;4.40;;
23634;SDS011;11994;51.038;16.974;2022-08-11T02:02:44;7.47;;;4.90;;
23634;SDS011;11994;51.038;16.974;2022-08-11T02:08:32;21.05;;;6.62;;
23634;SDS011;11994;51.038;16.974;2022-08-11T02:11:26;13.18;;;5.40;;
23634;SDS011;11994;51.038;16.974;2022-08-11T02:26:11;13.62;;;4.92;;
23634;SDS011;11994;51.038;16.974;2022-08-11T02:40:56;8.83;;;4.65;;
23634;SDS011;11994;51.038;16.974;2022-08-11T02:43:27;9.68;;;5.08;;
23634;SDS011;11994;51.038;16.974;2022-08-11T02:46:16;8.15;;;4.50;;
23634;SDS011;11994;51.038;16.974;2022-08-11T02:48:51;9.58;;;4.70;;
23634;SDS011;11994;51.038;16.974;2022-08-11T02:52:08;8.63;;;5.03;;
23634;SDS011;11994;51.038;16.974;2022-08-11T02:57:32;11.38;;;4.72;;
23634;SDS011;11994;51.038;16.974;2022-08-11T03:00:17;9.35;;;5.30;;
23634;SDS011;11994;51.038;16.974;2022-08-11T03:02:49;8.88;;;5.35;;
23634;SDS011;11994;51.038;16.974;2022-08-11T03:11:21;11.03;;;5.12;;
23634;SDS011;11994;51.038;16.974;2022-08-11T03:17:54;7.80;;;5.30;;
23634;SDS011;11994;51.038;16.974;2022-08-11T03:23:23;11.00;;;5.65;;
23634;SDS011;11994;51.038;16.974;2022-08-11T03:28:37;13.85;;;6.10;;
23634;SDS011;11994;51.038;16.974;2022-08-11T03:39:16;12.05;;;6.53;;
23634;SDS011;11994;51.038;16.974;2022-08-11T03:42:05;9.05;;;6.42;;
23634;SDS011;11994;51.038;16.974;2022-08-11T03:59:33;10.25;;;5.37;;
23634;SDS011;11994;51.038;16.974;2022-08-11T04:17:04;21.25;;;11.60;;
23634;SDS011;11994;51.038;16.974;2022-08-11T05:13:48;12.93;;;7.70;;
23634;SDS011;11994;51.038;16.974;2022-08-11T05:16:45;11.63;;;7.47;;
23634;SDS011;11994;51.038;16.974;2022-08-11T05:19:36;12.53;;;7.25;;
23634;SDS011;11994;51.038;16.974;2022-08-11T05:22:22;10.72;;;7.12;;
23634;SDS011;11994;51.038;16.974;2022-08-11T05:25:13;13.87;;;7.27;;
23634;SDS011;11994;51.038;16.974;2022-08-11T05:28:11;12.55;;;7.15;;
23634;SDS011;11994;51.038;16.974;2022-08-11T05:30:59;10.65;;;6.83;;
23634;SDS011;11994;51.038;16.974;2022-08-11T05:33:51;11.60;;;5.90;;
23634;SDS011;11994;51.038;16.974;2022-08-11T05:37:05;9.23;;;5.67;;
23634;SDS011;11994;51.038;16.974;2022-08-11T05:39:40;10.63;;;5.85;;
23634;SDS011;11994;51.038;16.974;2022-08-11T05:42:31;8.65;;;4.95;;
23634;SDS011;11994;51.038;16.974;2022-08-11T05:45:20;11.53;;;4.60;;
23634;SDS011;11994;51.038;16.974;2022-08-11T05:48:06;7.62;;;4.60;;
23634;SDS011;11994;51.038;16.974;2022-08-11T05:50:56;9.30;;;4.35;;
23634;SDS011;11994;51.038;16.974;2022-08-11T05:53:46;9.93;;;4.12;;
23634;SDS011;11994;51.038;16.974;2022-08-11T05:56:41;9.33;;;4.15;;
23634;SDS011;11994;51.038;16.974;2022-08-11T05:59:18;10.10;;;5.03;;
23634;SDS011;11994;51.038;16.974;2022-08-11T06:01:47;8.78;;;5.05;;
23634;SDS011;11994;51.038;16.974;2022-08-11T06:04:19;10.25;;;5.53;;
23634;SDS011;11994;51.038;16.974;2022-08-11T06:06:57;19.98;;;5.75;;
23634;SDS011;11994;51.038;16.974;2022-08-11T06:12:17;16.95;;;6.10;;
23634;SDS011;11994;51.038;16.974;2022-08-11T06:14:49;10.68;;;6.05;;
23634;SDS011;11994;51.038;16.974;2022-08-11T06:17:25;15.60;;;5.97;;
23634;SDS011;11994;51.038;16.974;2022-08-11T06:20:05;10.18;;;5.70;;
23634;SDS011;11994;51.038;16.974;2022-08-11T06:22:37;9.05;;;5.03;;
23634;SDS011;11994;51.038;16.974;2022-08-11T06:25:07;14.85;;;5.97;;
23634;SDS011;11994;51.038;16.974;2022-08-11T06:27:35;10.28;;;5.80;;
23634;SDS011;11994;51.038;16.974;2022-08-11T06:30:04;10.78;;;4.60;;
23634;SDS011;11994;51.038;16.974;2022-08-11T06:32:34;11.18;;;4.22;;
23634;SDS011;11994;51.038;16.974;2022-08-11T06:38:09;8.40;;;4.33;;
23634;SDS011;11994;51.038;16.974;2022-08-11T06:46:24;9.23;;;4.28;;
23634;SDS011;11994;51.038;16.974;2022-08-11T06:48:56;8.88;;;3.12;;
23634;SDS011;11994;51.038;16.974;2022-08-11T06:51:28;7.37;;;2.75;;
23634;SDS011;11994;51.038;16.974;2022-08-11T06:53:56;6.92;;;2.52;;
23634;SDS011;11994;51.038;16.974;2022-08-11T06:56:26;5.67;;;2.58;;
23634;SDS011;11994;51.038;16.974;2022-08-11T06:59:14;5.20;;;2.72;;
23634;SDS011;11994;51.038;16.974;2022-08-11T07:02:08;6.08;;;2.62;;
23634;SDS011;11994;51.038;16.974;2022-08-11T07:10:38;5.12;;;2.37;;
23634;SDS011;11994;51.038;16.974;2022-08-11T07:13:42;5.40;;;2.12;;
23634;SDS011;11994;51.038;16.974;2022-08-11T07:16:28;4.17;;;1.80;;
23634;SDS011;11994;51.038;16.974;2022-08-11T07:19:02;6.90;;;2.50;;
23634;SDS011;11994;51.038;16.974;2022-08-11T07:21:49;6.72;;;2.30;;
23634;SDS011;11994;51.038;16.974;2022-08-11T07:24:35;3.98;;;2.20;;
23634;SDS011;11994;51.038;16.974;2022-08-11T07:27:28;6.00;;;2.25;;
23634;SDS011;11994;51.038;16.974;2022-08-11T07:30:17;6.55;;;2.12;;
23634;SDS011;11994;51.038;16.974;2022-08-11T07:32:54;5.62;;;2.10;;
23634;SDS011;11994;51.038;16.974;2022-08-11T07:38:17;6.72;;;2.58;;
23634;SDS011;11994;51.038;16.974;2022-08-11T07:40:48;5.78;;;2.30;;
23634;SDS011;11994;51.038;16.974;2022-08-11T07:43:15;5.50;;;2.42;;
23634;SDS011;11994;51.038;16.974;2022-08-11T07:45:42;6.10;;;2.10;;
23634;SDS011;11994;51.038;16.974;2022-08-11T07:48:29;5.62;;;2.12;;
23634;SDS011;11994;51.038;16.974;2022-08-11T07:51:18;4.60;;;2.37;;
23634;SDS011;11994;51.038;16.974;2022-08-11T07:54:03;6.37;;;1.87;;
23634;SDS011;11994;51.038;16.974;2022-08-11T07:56:32;10.58;;;2.92;;
23634;SDS011;11994;51.038;16.974;2022-08-11T07:58:59;4.17;;;2.10;;
23634;SDS011;11994;51.038;16.974;2022-08-11T08:01:44;7.00;;;2.47;;
23634;SDS011;11994;51.038;16.974;2022-08-11T08:04:30;4.65;;;2.20;;
23634;SDS011;11994;51.038;16.974;2022-08-11T08:07:16;6.35;;;2.40;;
23634;SDS011;11994;51.038;16.974;2022-08-11T08:10:05;8.30;;;2.30;;
23634;SDS011;11994;51.038;16.974;2022-08-11T08:12:53;4.22;;;1.95;;
23634;SDS011;11994;51.038;16.974;2022-08-11T08:15:39;3.80;;;1.80;;
23634;SDS011;11994;51.038;16.974;2022-08-11T08:18:24;4.00;;;2.30;;
23634;SDS011;11994;51.038;16.974;2022-08-11T08:20:51;5.42;;;2.15;;
23634;SDS011;11994;51.038;16.974;2022-08-11T08:23:21;8.03;;;2.35;;
23634;SDS011;11994;51.038;16.974;2022-08-11T08:26:04;5.47;;;2.40;;
23634;SDS011;11994;51.038;16.974;2022-08-11T08:28:30;6.45;;;2.00;;
23634;SDS011;11994;51.038;16.974;2022-08-11T08:30:58;7.62;;;2.02;;
23634;SDS011;11994;51.038;16.974;2022-08-11T08:33:25;13.00;;;2.60;;
23634;SDS011;11994;51.038;16.974;2022-08-11T08:35:55;6.35;;;2.15;;
23634;SDS011;11994;51.038;16.974;2022-08-11T08:38:42;6.12;;;2.33;;
23634;SDS011;11994;51.038;16.974;2022-08-11T08:41:16;8.08;;;1.90;;
23634;SDS011;11994;51.038;16.974;2022-08-11T08:43:50;3.65;;;1.65;;
23634;SDS011;11994;51.038;16.974;2022-08-11T08:46:21;8.30;;;2.25;;
23634;SDS011;11994;51.038;16.974;2022-08-11T08:48:58;6.72;;;2.10;;
23634;SDS011;11994;51.038;16.974;2022-08-11T08:51:27;5.83;;;2.15;;
23634;SDS011;11994;51.038;16.974;2022-08-11T08:54:02;5.45;;;1.98;;
23634;SDS011;11994;51.038;16.974;2022-08-11T08:56:31;3.62;;;2.00;;
23634;SDS011;11994;51.038;16.974;2022-08-11T08:59:00;4.70;;;2.12;;
23634;SDS011;11994;51.038;16.974;2022-08-11T09:01:32;4.08;;;1.50;;
23634;SDS011;11994;51.038;16.974;2022-08-11T09:04:02;5.60;;;1.85;;
23634;SDS011;11994;51.038;16.974;2022-08-11T09:06:33;5.20;;;1.82;;
23634;SDS011;11994;51.038;16.974;2022-08-11T09:09:04;3.05;;;1.62;;
23634;SDS011;11994;51.038;16.974;2022-08-11T09:11:36;3.20;;;1.82;;
23634;SDS011;11994;51.038;16.974;2022-08-11T09:14:21;5.78;;;2.00;;
23634;SDS011;11994;51.038;16.974;2022-08-11T09:16:52;6.33;;;2.00;;
23634;SDS011;11994;51.038;16.974;2022-08-11T09:19:19;3.15;;;1.60;;
23634;SDS011;11994;51.038;16.974;2022-08-11T09:21:47;4.28;;;1.50;;
23634;SDS011;11994;51.038;16.974;2022-08-11T09:24:33;5.00;;;1.57;;
23634;SDS011;11994;51.038;16.974;2022-08-11T09:27:20;6.65;;;1.72;;
23634;SDS011;11994;51.038;16.974;2022-08-11T09:29:48;3.85;;;1.45;;
23634;SDS011;11994;51.038;16.974;2022-08-11T09:32:19;6.53;;;1.90;;
23634;SDS011;11994;51.038;16.974;2022-08-11T09:34:46;10.75;;;2.50;;
23634;SDS011;11994;51.038;16.974;2022-08-11T09:37:16;2.85;;;1.50;;
23634;SDS011;11994;51.038;16.974;2022-08-11T09:40:01;3.55;;;1.60;;
23634;SDS011;11994;51.038;16.974;2022-08-11T09:42:47;6.55;;;2.40;;
23634;SDS011;11994;51.038;16.974;2022-08-11T09:45:33;3.45;;;1.35;;
23634;SDS011;11994;51.038;16.974;2022-08-11T09:48:02;4.35;;;1.32;;
23634;SDS011;11994;51.038;16.974;2022-08-11T09:50:30;2.70;;;1.40;;
23634;SDS011;11994;51.038;16.974;2022-08-11T09:52:59;3.53;;;1.40;;
23634;SDS011;11994;51.038;16.974;2022-08-11T09:55:27;7.90;;;1.52;;
23634;SDS011;11994;51.038;16.974;2022-08-11T09:57:53;3.35;;;1.50;;
23634;SDS011;11994;51.038;16.974;2022-08-11T10:00:37;5.22;;;2.02;;
23634;SDS011;11994;51.038;16.974;2022-08-11T10:05:57;4.90;;;2.70;;
23634;SDS011;11994;51.038;16.974;2022-08-11T10:08:44;6.45;;;2.02;;
23634;SDS011;11994;51.038;16.974;2022-08-11T10:11:13;4.50;;;1.92;;
23634;SDS011;11994;51.038;16.974;2022-08-11T10:13:43;5.62;;;2.15;;
23634;SDS011;11994;51.038;16.974;2022-08-11T10:16:31;5.47;;;2.60;;
23634;SDS011;11994;51.038;16.974;2022-08-11T10:19:01;5.35;;;1.67;;
23634;SDS011;11994;51.038;16.974;2022-08-11T10:24:08;6.17;;;2.20;;
23634;SDS011;11994;51.038;16.974;2022-08-11T10:26:55;6.72;;;1.85;;
23634;SDS011;11994;51.038;16.974;2022-08-11T10:29:28;2.98;;;1.40;;
23634;SDS011;11994;51.038;16.974;2022-08-11T10:32:18;5.22;;;1.50;;
23634;SDS011;11994;51.038;16.974;2022-08-11T10:35:05;7.08;;;1.50;;
23634;SDS011;11994;51.038;16.974;2022-08-11T10:37:33;7.87;;;1.70;;
23634;SDS011;11994;51.038;16.974;2022-08-11T10:40:02;4.30;;;1.52;;
23634;SDS011;11994;51.038;16.974;2022-08-11T10:42:31;2.00;;;1.20;;
23634;SDS011;11994;51.038;16.974;2022-08-11T10:45:16;6.40;;;1.40;;
23634;SDS011;11994;51.038;16.974;2022-08-11T10:48:02;2.98;;;1.30;;
23634;SDS011;11994;51.038;16.974;2022-08-11T10:50:30;7.65;;;1.37;;
23634;SDS011;11994;51.038;16.974;2022-08-11T10:53:16;5.58;;;1.10;;
23634;SDS011;11994;51.038;16.974;2022-08-11T10:56:02;4.47;;;1.12;;
23634;SDS011;11994;51.038;16.974;2022-08-11T10:58:48;4.37;;;1.10;;
23634;SDS011;11994;51.038;16.974;2022-08-11T11:01:15;9.80;;;1.47;;
23634;SDS011;11994;51.038;16.974;2022-08-11T11:03:55;7.03;;;1.40;;
23634;SDS011;11994;51.038;16.974;2022-08-11T11:09:39;4.78;;;1.00;;
23634;SDS011;11994;51.038;16.974;2022-08-11T11:15:25;9.78;;;1.42;;
23634;SDS011;11994;51.038;16.974;2022-08-11T11:18:18;1.72;;;0.80;;
23634;SDS011;11994;51.038;16.974;2022-08-11T11:20:58;2.10;;;0.80;;
23634;SDS011;11994;51.038;16.974;2022-08-11T11:31:58;2.20;;;0.90;;
23634;SDS011;11994;51.038;16.974;2022-08-11T11:37:36;1.35;;;0.70;;
23634;SDS011;11994;51.038;16.974;2022-08-11T11:40:08;2.98;;;0.90;;
23634;SDS011;11994;51.038;16.974;2022-08-11T11:42:42;2.17;;;0.70;;
23634;SDS011;11994;51.038;16.974;2022-08-11T11:45:08;1.92;;;0.70;;
23634;SDS011;11994;51.038;16.974;2022-08-11T11:47:37;3.37;;;0.72;;
23634;SDS011;11994;51.038;16.974;2022-08-11T11:50:04;2.05;;;0.60;;
23634;SDS011;11994;51.038;16.974;2022-08-11T11:52:32;3.65;;;0.82;;
23634;SDS011;11994;51.038;16.974;2022-08-11T11:54:59;2.77;;;0.60;;
23634;SDS011;11994;51.038;16.974;2022-08-11T11:57:28;2.47;;;0.70;;
23634;SDS011;11994;51.038;16.974;2022-08-11T12:00:12;3.47;;;0.95;;
23634;SDS011;11994;51.038;16.974;2022-08-11T12:02:58;4.97;;;0.68;;
23634;SDS011;11994;51.038;16.974;2022-08-11T12:05:32;4.08;;;0.85;;
23634;SDS011;11994;51.038;16.974;2022-08-11T12:08:00;4.08;;;0.85;;
23634;SDS011;11994;51.038;16.974;2022-08-11T12:10:36;6.00;;;1.00;;
23634;SDS011;11994;51.038;16.974;2022-08-11T12:13:39;2.10;;;0.80;;
23634;SDS011;11994;51.038;16.974;2022-08-11T12:16:14;4.55;;;0.80;;
23634;SDS011;11994;51.038;16.974;2022-08-11T12:18:45;2.35;;;0.70;;
23634;SDS011;11994;51.038;16.974;2022-08-11T12:21:12;5.20;;;0.80;;
23634;SDS011;11994;51.038;16.974;2022-08-11T12:23:40;4.45;;;0.60;;
23634;SDS011;11994;51.038;16.974;2022-08-11T12:26:26;2.17;;;0.88;;
23634;SDS011;11994;51.038;16.974;2022-08-11T12:29:05;2.55;;;0.98;;
23634;SDS011;11994;51.038;16.974;2022-08-11T12:31:35;3.20;;;0.80;;
23634;SDS011;11994;51.038;16.974;2022-08-11T12:34:03;4.80;;;1.07;;
23634;SDS011;11994;51.038;16.974;2022-08-11T12:36:36;1.42;;;0.90;;
23634;SDS011;11994;51.038;16.974;2022-08-11T12:39:06;7.37;;;1.30;;
23634;SDS011;11994;51.038;16.974;2022-08-11T12:41:38;5.55;;;1.10;;
23634;SDS011;11994;51.038;16.974;2022-08-11T12:44:26;4.55;;;1.60;;
23634;SDS011;11994;51.038;16.974;2022-08-11T12:47:12;4.55;;;1.20;;
23634;SDS011;11994;51.038;16.974;2022-08-11T12:49:43;2.40;;;1.02;;
23634;SDS011;11994;51.038;16.974;2022-08-11T12:52:35;3.08;;;1.10;;
23634;SDS011;11994;51.038;16.974;2022-08-11T12:55:15;5.15;;;1.20;;
23634;SDS011;11994;51.038;16.974;2022-08-11T12:57:45;5.12;;;0.90;;
23634;SDS011;11994;51.038;16.974;2022-08-11T13:00:31;3.33;;;1.00;;
23634;SDS011;11994;51.038;16.974;2022-08-11T13:03:17;6.65;;;1.10;;
23634;SDS011;11994;51.038;16.974;2022-08-11T13:06:03;5.00;;;1.07;;
23634;SDS011;11994;51.038;16.974;2022-08-11T13:08:32;3.08;;;0.90;;
23634;SDS011;11994;51.038;16.974;2022-08-11T13:11:00;7.78;;;1.27;;
23634;SDS011;11994;51.038;16.974;2022-08-11T13:13:48;5.40;;;1.10;;
23634;SDS011;11994;51.038;16.974;2022-08-11T13:16:16;2.95;;;0.98;;
23634;SDS011;11994;51.038;16.974;2022-08-11T13:18:45;2.50;;;0.75;;
23634;SDS011;11994;51.038;16.974;2022-08-11T13:21:12;2.22;;;0.90;;
23634;SDS011;11994;51.038;16.974;2022-08-11T13:23:39;3.22;;;0.80;;
23634;SDS011;11994;51.038;16.974;2022-08-11T13:26:07;2.37;;;0.80;;
23634;SDS011;11994;51.038;16.974;2022-08-11T13:28:35;1.98;;;0.80;;
23634;SDS011;11994;51.038;16.974;2022-08-11T13:31:02;4.70;;;0.98;;
23634;SDS011;11994;51.038;16.974;2022-08-11T13:33:47;1.77;;;0.90;;
23634;SDS011;11994;51.038;16.974;2022-08-11T13:36:14;4.10;;;0.93;;
23634;SDS011;11994;51.038;16.974;2022-08-11T13:38:47;4.72;;;1.00;;
23634;SDS011;11994;51.038;16.974;2022-08-11T13:41:14;2.58;;;0.93;;
23634;SDS011;11994;51.038;16.974;2022-08-11T13:44:00;3.52;;;0.90;;
23634;SDS011;11994;51.038;16.974;2022-08-11T13:46:27;3.50;;;0.88;;
23634;SDS011;11994;51.038;16.974;2022-08-11T13:48:54;3.27;;;1.10;;
23634;SDS011;11994;51.038;16.974;2022-08-11T13:51:22;2.58;;;0.85;;
23634;SDS011;11994;51.038;16.974;2022-08-11T13:54:04;1.82;;;0.75;;
23634;SDS011;11994;51.038;16.974;2022-08-11T13:56:33;2.40;;;1.10;;
23634;SDS011;11994;51.038;16.974;2022-08-11T13:59:04;3.58;;;0.90;;
23634;SDS011;11994;51.038;16.974;2022-08-11T14:01:36;2.72;;;0.88;;
23634;SDS011;11994;51.038;16.974;2022-08-11T14:04:13;5.05;;;0.88;;
23634;SDS011;11994;51.038;16.974;2022-08-11T14:06:40;4.47;;;0.80;;
23634;SDS011;11994;51.038;16.974;2022-08-11T14:09:09;3.37;;;1.00;;
23634;SDS011;11994;51.038;16.974;2022-08-11T14:11:39;2.87;;;0.90;;
23634;SDS011;11994;51.038;16.974;2022-08-11T14:14:26;6.85;;;1.30;;
23634;SDS011;11994;51.038;16.974;2022-08-11T14:16:59;6.85;;;1.35;;
23634;SDS011;11994;51.038;16.974;2022-08-11T14:19:33;3.98;;;0.93;;
23634;SDS011;11994;51.038;16.974;2022-08-11T14:22:03;3.50;;;0.80;;
23634;SDS011;11994;51.038;16.974;2022-08-11T14:24:40;3.30;;;0.70;;
23634;SDS011;11994;51.038;16.974;2022-08-11T14:27:06;3.70;;;0.80;;
23634;SDS011;11994;51.038;16.974;2022-08-11T14:29:36;3.47;;;0.77;;
23634;SDS011;11994;51.038;16.974;2022-08-11T14:32:07;2.85;;;0.90;;
23634;SDS011;11994;51.038;16.974;2022-08-11T14:34:38;2.27;;;0.90;;
23634;SDS011;11994;51.038;16.974;2022-08-11T14:37:13;3.92;;;0.95;;
23634;SDS011;11994;51.038;16.974;2022-08-11T14:39:47;4.25;;;0.90;;
23634;SDS011;11994;51.038;16.974;2022-08-11T14:42:19;2.47;;;0.70;;
23634;SDS011;11994;51.038;16.974;2022-08-11T14:45:05;2.95;;;0.70;;
23634;SDS011;11994;51.038;16.974;2022-08-11T14:47:55;4.53;;;0.70;;
23634;SDS011;11994;51.038;16.974;2022-08-11T14:50:27;2.80;;;0.93;;
23634;SDS011;11994;51.038;16.974;2022-08-11T14:53:06;3.17;;;0.70;;
23634;SDS011;11994;51.038;16.974;2022-08-11T14:55:39;2.25;;;0.80;;
23634;SDS011;11994;51.038;16.974;2022-08-11T15:00:55;4.37;;;0.90;;
23634;SDS011;11994;51.038;16.974;2022-08-11T15:03:23;2.37;;;1.00;;
23634;SDS011;11994;51.038;16.974;2022-08-11T15:05:52;2.50;;;0.90;;
23634;SDS011;11994;51.038;16.974;2022-08-11T15:08:22;3.10;;;0.90;;
23634;SDS011;11994;51.038;16.974;2022-08-11T15:11:23;4.22;;;0.80;;
23634;SDS011;11994;51.038;16.974;2022-08-11T15:14:10;1.62;;;0.70;;
23634;SDS011;11994;51.038;16.974;2022-08-11T15:16:43;4.28;;;1.02;;
23634;SDS011;11994;51.038;16.974;2022-08-11T15:19:27;2.40;;;0.80;;
23634;SDS011;11994;51.038;16.974;2022-08-11T15:21:55;4.83;;;0.98;;
23634;SDS011;11994;51.038;16.974;2022-08-11T15:24:40;6.00;;;1.10;;
23634;SDS011;11994;51.038;16.974;2022-08-11T15:27:11;7.10;;;1.00;;
23634;SDS011;11994;51.038;16.974;2022-08-11T15:29:56;3.55;;;0.90;;
23634;SDS011;11994;51.038;16.974;2022-08-11T15:32:42;2.52;;;0.90;;
23634;SDS011;11994;51.038;16.974;2022-08-11T15:35:29;1.72;;;0.80;;
23634;SDS011;11994;51.038;16.974;2022-08-11T15:38:15;5.60;;;0.95;;
23634;SDS011;11994;51.038;16.974;2022-08-11T15:40:44;3.33;;;1.00;;
23634;SDS011;11994;51.038;16.974;2022-08-11T15:43:40;3.40;;;0.90;;
23634;SDS011;11994;51.038;16.974;2022-08-11T15:46:32;2.27;;;0.80;;
23634;SDS011;11994;51.038;16.974;2022-08-11T15:49:10;3.12;;;0.75;;
23634;SDS011;11994;51.038;16.974;2022-08-11T15:51:58;3.20;;;0.80;;
23634;SDS011;11994;51.038;16.974;2022-08-11T15:54:31;1.85;;;0.78;;
23634;SDS011;11994;51.038;16.974;2022-08-11T15:57:00;4.50;;;0.65;;
23634;SDS011;11994;51.038;16.974;2022-08-11T15:59:35;2.47;;;0.70;;
23634;SDS011;11994;51.038;16.974;2022-08-11T16:02:11;2.67;;;0.70;;
23634;SDS011;11994;51.038;16.974;2022-08-11T16:04:49;2.77;;;0.95;;
23634;SDS011;11994;51.038;16.974;2022-08-11T16:07:18;4.83;;;1.10;;
23634;SDS011;11994;51.038;16.974;2022-08-11T16:12:26;2.05;;;0.80;;
23634;SDS011;11994;51.038;16.974;2022-08-11T16:15:00;2.95;;;0.85;;
23634;SDS011;11994;51.038;16.974;2022-08-11T16:17:51;2.22;;;0.98;;
23634;SDS011;11994;51.038;16.974;2022-08-11T16:20:22;3.22;;;1.02;;
23634;SDS011;11994;51.038;16.974;2022-08-11T16:22:53;2.35;;;0.90;;
23634;SDS011;11994;51.038;16.974;2022-08-11T16:25:24;3.35;;;0.82;;
23634;SDS011;11994;51.038;16.974;2022-08-11T16:27:53;4.87;;;0.90;;
23634;SDS011;11994;51.038;16.974;2022-08-11T16:30:28;4.45;;;1.00;;
23634;SDS011;11994;51.038;16.974;2022-08-11T16:32:57;2.85;;;0.80;;
23634;SDS011;11994;51.038;16.974;2022-08-11T16:35:25;4.70;;;1.10;;
23634;SDS011;11994;51.038;16.974;2022-08-11T16:38:11;4.67;;;1.12;;
23634;SDS011;11994;51.038;16.974;2022-08-11T16:40:57;4.53;;;1.10;;
23634;SDS011;11994;51.038;16.974;2022-08-11T16:43:25;3.37;;;0.90;;
23634;SDS011;11994;51.038;16.974;2022-08-11T16:46:16;3.33;;;0.93;;
23634;SDS011;11994;51.038;16.974;2022-08-11T16:49:04;3.90;;;0.93;;
23634;SDS011;11994;51.038;16.974;2022-08-11T16:51:36;1.45;;;0.75;;
23634;SDS011;11994;51.038;16.974;2022-08-11T16:54:02;5.85;;;0.90;;
23634;SDS011;11994;51.038;16.974;2022-08-11T16:56:31;3.72;;;0.80;;
23634;SDS011;11994;51.038;16.974;2022-08-11T16:59:01;2.83;;;1.00;;
23634;SDS011;11994;51.038;16.974;2022-08-11T17:01:55;3.83;;;1.17;;
23634;SDS011;11994;51.038;16.974;2022-08-11T17:04:30;2.80;;;0.80;;
23634;SDS011;11994;51.038;16.974;2022-08-11T17:07:33;6.90;;;0.90;;
23634;SDS011;11994;51.038;16.974;2022-08-11T17:10:25;2.70;;;0.80;;
23634;SDS011;11994;51.038;16.974;2022-08-11T17:13:17;3.98;;;0.90;;
23634;SDS011;11994;51.038;16.974;2022-08-11T17:15:49;3.22;;;0.72;;
23634;SDS011;11994;51.038;16.974;2022-08-11T17:18:33;14.10;;;1.00;;
23634;SDS011;11994;51.038;16.974;2022-08-11T17:21:24;12.70;;;1.17;;
23634;SDS011;11994;51.038;16.974;2022-08-11T17:24:05;10.28;;;1.10;;
23634;SDS011;11994;51.038;16.974;2022-08-11T17:26:35;11.22;;;1.27;;
23634;SDS011;11994;51.038;16.974;2022-08-11T17:31:56;7.25;;;1.10;;
23634;SDS011;11994;51.038;16.974;2022-08-11T17:34:45;11.00;;;1.15;;
23634;SDS011;11994;51.038;16.974;2022-08-11T17:37:31;5.92;;;0.70;;
23634;SDS011;11994;51.038;16.974;2022-08-11T17:40:03;4.58;;;0.85;;
23634;SDS011;11994;51.038;16.974;2022-08-11T17:42:31;5.87;;;0.88;;
23634;SDS011;11994;51.038;16.974;2022-08-11T17:45:18;5.45;;;0.80;;
23634;SDS011;11994;51.038;16.974;2022-08-11T17:48:03;4.55;;;0.72;;
23634;SDS011;11994;51.038;16.974;2022-08-11T17:50:49;2.60;;;0.80;;
23634;SDS011;11994;51.038;16.974;2022-08-11T17:53:23;4.92;;;0.70;;
23634;SDS011;11994;51.038;16.974;2022-08-11T17:56:10;6.35;;;1.30;;
23634;SDS011;11994;51.038;16.974;2022-08-11T17:58:57;4.12;;;0.90;;
23634;SDS011;11994;51.038;16.974;2022-08-11T18:01:44;3.58;;;0.80;;
23634;SDS011;11994;51.038;16.974;2022-08-11T18:04:12;3.90;;;0.53;;
23634;SDS011;11994;51.038;16.974;2022-08-11T18:06:39;2.45;;;0.65;;
23634;SDS011;11994;51.038;16.974;2022-08-11T18:09:11;3.83;;;0.80;;
23634;SDS011;11994;51.038;16.974;2022-08-11T18:12:01;3.02;;;0.85;;
23634;SDS011;11994;51.038;16.974;2022-08-11T18:14:48;1.77;;;0.80;;
23634;SDS011;11994;51.038;16.974;2022-08-11T18:17:36;3.83;;;1.10;;
23634;SDS011;11994;51.038;16.974;2022-08-11T18:20:22;3.12;;;0.80;;
23634;SDS011;11994;51.038;16.974;2022-08-11T18:23:08;2.45;;;0.82;;
23634;SDS011;11994;51.038;16.974;2022-08-11T18:25:59;4.08;;;0.88;;
23634;SDS011;11994;51.038;16.974;2022-08-11T18:28:47;3.67;;;0.98;;
23634;SDS011;11994;51.038;16.974;2022-08-11T18:31:35;3.05;;;0.70;;
23634;SDS011;11994;51.038;16.974;2022-08-11T18:34:27;3.17;;;0.70;;
23634;SDS011;11994;51.038;16.974;2022-08-11T18:37:22;4.40;;;0.82;;
23634;SDS011;11994;51.038;16.974;2022-08-11T18:40:10;3.00;;;0.68;;
23634;SDS011;11994;51.038;16.974;2022-08-11T18:42:59;5.87;;;0.80;;
23634;SDS011;11994;51.038;16.974;2022-08-11T18:45:48;5.55;;;0.72;;
23634;SDS011;11994;51.038;16.974;2022-08-11T18:48:38;4.30;;;0.80;;
23634;SDS011;11994;51.038;16.974;2022-08-11T18:51:24;3.45;;;0.93;;
23634;SDS011;11994;51.038;16.974;2022-08-11T18:54:11;2.87;;;1.30;;
23634;SDS011;11994;51.038;16.974;2022-08-11T18:56:58;3.17;;;1.10;;
23634;SDS011;11994;51.038;16.974;2022-08-11T18:59:45;3.30;;;0.78;;
23634;SDS011;11994;51.038;16.974;2022-08-11T19:02:31;2.37;;;0.98;;
23634;SDS011;11994;51.038;16.974;2022-08-11T19:05:20;7.10;;;0.80;;
23634;SDS011;11994;51.038;16.974;2022-08-11T19:08:05;8.28;;;1.10;;
23634;SDS011;11994;51.038;16.974;2022-08-11T19:10:52;3.25;;;1.02;;
23634;SDS011;11994;51.038;16.974;2022-08-11T19:13:38;5.00;;;1.02;;
23634;SDS011;11994;51.038;16.974;2022-08-11T19:16:25;5.53;;;1.07;;
23634;SDS011;11994;51.038;16.974;2022-08-11T19:19:12;4.10;;;1.20;;
23634;SDS011;11994;51.038;16.974;2022-08-11T19:21:59;5.35;;;1.07;;
23634;SDS011;11994;51.038;16.974;2022-08-11T19:24:46;7.05;;;1.15;;
23634;SDS011;11994;51.038;16.974;2022-08-11T19:27:32;4.03;;;1.10;;
23634;SDS011;11994;51.038;16.974;2022-08-11T19:30:18;4.85;;;1.30;;
23634;SDS011;11994;51.038;16.974;2022-08-11T19:33:02;3.55;;;1.12;;
23634;SDS011;11994;51.038;16.974;2022-08-11T19:35:48;3.62;;;1.30;;
23634;SDS011;11994;51.038;16.974;2022-08-11T19:38:33;3.90;;;1.20;;
23634;SDS011;11994;51.038;16.974;2022-08-11T19:41:21;3.42;;;1.12;;
23634;SDS011;11994;51.038;16.974;2022-08-11T19:44:07;5.08;;;1.30;;
23634;SDS011;11994;51.038;16.974;2022-08-11T19:46:53;4.80;;;1.30;;